Time;durP1;ratioP1;P1;durP2;ratioP2;P2;SDS_P1;SDS_P2;PMS_P1;PMS_P2;Temp;Humidity;BMP_temperature;BMP_pressure;BME280_temperature;BME280_humidity;BME280_pressure;Samples;Min_cycle;Max_cycle;Signal;HPM_P1;HPM_P2
2021/10/22 00:01:53;;;;;;;14.73;7.97;;;;;;;16.19;51.76;98686.73;1623522;86;21032;-69
2021/10/22 00:04:19;;;;;;;13.98;8.38;;;;;;;16.22;51.75;98682.03;1659496;86;21024;-70
2021/10/22 00:06:45;;;;;;;12.13;7.40;;;;;;;16.24;51.72;98677.91;1655782;86;21124;-69
2021/10/22 00:09:11;;;;;;;13.05;7.40;;;;;;;16.25;51.68;98674.64;1631442;85;21214;-69
2021/10/22 00:11:43;;;;;;;12.58;7.87;;;;;;;16.26;51.64;98678.38;1659340;86;20983;-70
2021/10/22 00:14:06;;;;;;;11.88;7.00;;;;;;;16.27;51.61;98687.33;1628996;86;21533;-69
2021/10/22 00:16:33;;;;;;;9.58;7.05;;;;;;;16.30;51.59;98697.58;1659166;86;21043;-68
2021/10/22 00:18:59;;;;;;;12.20;7.72;;;;;;;16.31;51.52;98688.30;1659583;86;21036;-69
2021/10/22 00:21:26;;;;;;;15.43;7.53;;;;;;;16.33;51.52;98683.37;1634609;86;21117;-69
2021/10/22 00:23:53;;;;;;;12.53;6.85;;;;;;;16.35;51.48;98694.18;1634435;86;21020;-70
2021/10/22 00:26:19;;;;;;;10.55;7.80;;;;;;;16.36;51.51;98697.66;1634494;86;21000;-70
2021/10/22 00:28:46;;;;;;;11.28;6.60;;;;;;;16.37;51.49;98700.08;1634840;86;21608;-70
2021/10/22 00:31:13;;;;;;;9.05;6.42;;;;;;;16.39;51.48;98684.84;1659583;86;21031;-70
2021/10/22 00:33:39;;;;;;;13.93;7.75;;;;;;;16.40;51.45;98695.37;1630819;86;22328;-68
2021/10/22 00:36:07;;;;;;;10.05;7.12;;;;;;;16.42;51.44;98674.16;1657802;85;21054;-66
2021/10/22 00:38:33;;;;;;;12.70;6.60;;;;;;;16.44;51.43;98671.14;1669526;85;20971;-70
2021/10/22 00:41:00;;;;;;;9.00;6.25;;;;;;;16.45;51.39;98676.23;1627015;85;21006;-70
2021/10/22 00:43:31;;;;;;;9.20;6.33;;;;;;;16.46;51.39;98671.61;1633368;86;21038;-70
2021/10/22 00:45:57;;;;;;;13.70;8.10;;;;;;;16.46;51.40;98672.97;1638263;85;21234;-72
2021/10/22 00:48:23;;;;;;;8.75;6.95;;;;;;;16.46;51.44;98679.75;1669088;85;21107;-73
2021/10/22 00:50:56;;;;;;;7.70;6.22;;;;;;;16.46;51.46;98675.13;1629900;86;21016;-71
2021/10/22 00:53:24;;;;;;;10.15;6.65;;;;;;;16.46;51.48;98680.56;1629690;86;21517;-71
2021/10/22 00:55:51;;;;;;;9.88;5.97;;;;;;;16.47;51.50;98666.44;1659755;86;21071;-71
2021/10/22 00:58:18;;;;;;;12.28;7.92;;;;;;;16.47;51.52;98669.95;1630443;86;21115;-71
2021/10/22 01:00:44;;;;;;;8.50;6.55;;;;;;;16.47;51.54;98673.22;1630218;86;21011;-71
2021/10/22 01:03:11;;;;;;;7.58;5.40;;;;;;;16.47;51.58;98670.50;1632302;86;21029;-72
2021/10/22 01:05:39;;;;;;;17.37;8.48;;;;;;;16.47;51.57;98664.52;1660257;85;21583;-73
2021/10/22 01:08:06;;;;;;;7.47;6.22;;;;;;;16.47;51.60;98664.52;1632369;86;21557;-73
2021/10/22 01:10:33;;;;;;;9.40;6.90;;;;;;;16.48;51.61;98655.27;1632110;86;21994;-73
2021/10/22 01:13:00;;;;;;;7.50;5.42;;;;;;;16.49;51.62;98663.67;1623472;88;20999;-72
2021/10/22 01:15:26;;;;;;;7.40;5.83;;;;;;;16.48;51.62;98667.48;1636702;86;21024;-73
2021/10/22 01:17:53;;;;;;;9.95;6.10;;;;;;;16.49;51.59;98671.00;1658886;86;21060;-71
2021/10/22 01:20:22;;;;;;;8.78;5.58;;;;;;;16.49;51.63;98675.08;1599520;87;21055;-72
2021/10/22 01:22:53;;;;;;;9.43;6.37;;;;;;;16.50;51.66;98687.52;1643022;86;21928;-70
2021/10/22 01:25:26;;;;;;;8.55;6.47;;;;;;;16.49;51.68;98694.08;1648986;86;21548;-72
2021/10/22 01:27:54;;;;;;;7.95;5.72;;;;;;;16.49;51.70;98696.23;1656984;86;21047;-72
2021/10/22 01:30:23;;;;;;;7.65;5.45;;;;;;;16.48;51.71;98695.98;1660205;86;21216;-72
2021/10/22 01:32:52;;;;;;;7.10;5.65;;;;;;;16.47;51.79;98712.02;1618933;87;21528;-72
2021/10/22 01:35:19;;;;;;;11.18;6.40;;;;;;;16.47;51.80;98700.36;1586162;87;21046;-73
2021/10/22 01:37:45;;;;;;;10.30;5.33;;;;;;;16.48;51.85;98712.83;1619826;87;21003;-73
2021/10/22 01:40:12;;;;;;;10.48;5.17;;;;;;;16.45;51.86;98714.82;1647577;85;21022;-73
2021/10/22 01:42:39;;;;;;;5.67;4.67;;;;;;;16.45;51.89;98727.80;1648407;85;21063;-73
2021/10/22 01:45:09;;;;;;;13.68;6.42;;;;;;;16.44;51.94;98722.70;1672162;85;21063;-72
2021/10/22 01:47:35;;;;;;;10.35;5.62;;;;;;;16.45;51.93;98718.89;1672209;85;21800;-73
2021/10/22 01:50:01;;;;;;;9.98;5.87;;;;;;;16.45;51.90;98711.52;1648536;85;21520;-74
2021/10/22 01:52:29;;;;;;;12.55;5.55;;;;;;;16.44;51.87;98714.02;1649250;85;21046;-73
2021/10/22 01:54:56;;;;;;;7.47;4.35;;;;;;;16.46;51.85;98730.77;1619845;87;21078;-73
2021/10/22 01:57:22;;;;;;;5.50;4.50;;;;;;;16.45;51.84;98714.23;1619705;87;21043;-77
2021/10/22 01:59:50;;;;;;;6.20;4.90;;;;;;;16.45;51.78;98728.39;1652135;85;21166;-74
2021/10/22 02:02:17;;;;;;;12.03;4.72;;;;;;;16.46;51.79;98738.91;1639566;86;21044;-73
2021/10/22 02:04:43;;;;;;;8.78;5.37;;;;;;;16.47;51.69;98731.58;1670465;86;21040;-73
2021/10/22 02:07:10;;;;;;;14.23;7.60;;;;;;;16.47;51.53;98735.09;1670394;86;21180;-73
2021/10/22 02:09:38;;;;;;;6.28;5.50;;;;;;;16.47;51.51;98736.45;1644557;86;21047;-73
2021/10/22 02:12:06;;;;;;;5.50;4.92;;;;;;;16.46;51.48;98742.18;1654279;85;21287;-71
2021/10/22 02:14:33;;;;;;;8.55;5.65;;;;;;;16.46;51.46;98739.47;1644402;87;21050;-72
2021/10/22 02:16:59;;;;;;;7.50;5.00;;;;;;;16.46;51.43;98743.53;1644785;85;20939;-72
2021/10/22 02:19:27;;;;;;;11.90;5.67;;;;;;;16.45;51.04;98761.73;1619430;87;21056;-71
2021/10/22 02:21:53;;;;;;;10.30;4.12;;;;;;;16.46;51.02;98751.13;1625610;86;21063;-73
2021/10/22 02:24:20;;;;;;;9.83;5.17;;;;;;;16.45;50.99;98750.10;1670506;86;22748;-73
2021/10/22 02:26:46;;;;;;;6.92;4.30;;;;;;;16.45;50.85;98763.09;1644994;85;21080;-71
2021/10/22 02:29:13;;;;;;;14.20;4.90;;;;;;;16.46;50.70;98761.98;1620215;87;21134;-71
2021/10/22 02:31:40;;;;;;;4.50;4.10;;;;;;;16.46;50.61;98757.11;1650790;86;21024;-71
2021/10/22 02:34:08;;;;;;;8.15;4.95;;;;;;;16.45;50.31;98772.59;1663053;86;21011;-71
2021/10/22 02:36:35;;;;;;;14.47;4.35;;;;;;;16.46;50.23;98766.61;1618412;87;21837;-71
2021/10/22 02:39:03;;;;;;;4.83;3.85;;;;;;;16.45;50.05;98783.44;1633076;86;21103;-70
2021/10/22 02:41:30;;;;;;;8.10;4.33;;;;;;;16.44;49.90;98774.28;1639750;85;21049;-71
2021/10/22 02:43:56;;;;;;;6.45;4.20;;;;;;;16.44;49.77;98764.78;1674222;85;21029;-71
2021/10/22 02:46:22;;;;;;;6.42;3.98;;;;;;;16.41;49.40;98787.09;1673995;85;21015;-71
2021/10/22 02:48:48;;;;;;;10.25;3.95;;;;;;;16.40;49.44;98774.66;1646451;85;21023;-71
2021/10/22 02:51:15;;;;;;;6.08;3.62;;;;;;;16.39;49.38;98809.69;1637566;85;21010;-70
2021/10/22 02:53:41;;;;;;;6.60;4.22;;;;;;;16.35;48.97;98791.87;1672569;85;21004;-70
2021/10/22 02:56:07;;;;;;;6.75;3.90;;;;;;;16.33;49.03;98807.64;1678347;85;21047;-72
2021/10/22 02:58:34;;;;;;;6.35;3.75;;;;;;;16.32;48.91;98803.33;1641086;86;21087;-73
2021/10/22 03:01:00;;;;;;;9.33;3.90;;;;;;;16.30;48.78;98805.56;1653888;85;21092;-73
2021/10/22 03:03:26;;;;;;;3.85;3.40;;;;;;;16.28;48.84;98796.91;1679143;85;21983;-72
2021/10/22 03:05:53;;;;;;;5.33;3.42;;;;;;;16.25;48.82;98805.68;1678807;85;21001;-72
2021/10/22 03:08:20;;;;;;;6.45;3.55;;;;;;;16.23;48.67;98815.22;1677111;85;21051;-72
2021/10/22 03:10:47;;;;;;;6.58;3.83;;;;;;;16.20;48.76;98819.92;1637959;86;21041;-72
2021/10/22 03:13:13;;;;;;;8.80;3.27;;;;;;;16.18;48.65;98824.28;1657253;85;21071;-72
2021/10/22 03:15:39;;;;;;;15.08;3.80;;;;;;;16.14;48.64;98824.66;1614968;88;21019;-72
2021/10/22 03:18:07;;;;;;;13.15;3.33;;;;;;;16.11;48.70;98821.98;1656277;86;21540;-73
2021/10/22 03:20:35;;;;;;;4.12;3.72;;;;;;;16.08;48.54;98828.59;1626075;86;21532;-72
2021/10/22 03:23:04;;;;;;;4.40;2.95;;;;;;;16.05;48.56;98841.42;1657647;85;21012;-72
2021/10/22 03:25:30;;;;;;;4.97;2.98;;;;;;;16.02;48.43;98848.25;1658010;85;21760;-72
2021/10/22 03:28:04;;;;;;;3.35;3.05;;;;;;;16.01;48.43;98851.28;1632257;85;21584;-72
2021/10/22 03:30:25;;;;;;;9.70;3.60;;;;;;;15.97;48.52;98848.36;1677792;85;21000;-72
2021/10/22 03:32:52;;;;;;;6.33;2.80;;;;;;;15.95;48.51;98857.37;1662748;85;20997;-72
2021/10/22 03:35:18;;;;;;;5.47;3.15;;;;;;;15.93;48.61;98845.20;1630815;86;21127;-71
2021/10/22 03:37:44;;;;;;;12.88;3.40;;;;;;;15.87;48.63;98843.73;1649797;85;21221;-73
2021/10/22 03:40:12;;;;;;;4.15;3.08;;;;;;;15.85;48.78;98845.39;1676851;85;21031;-72
2021/10/22 03:42:38;;;;;;;3.25;2.98;;;;;;;15.84;48.87;98849.75;1691333;84;21031;-72
2021/10/22 03:45:07;;;;;;;10.90;3.27;;;;;;;15.80;48.98;98853.63;1692631;84;21025;-72
2021/10/22 03:47:34;;;;;;;3.70;3.35;;;;;;;15.78;49.11;98855.83;1697266;84;21019;-72
2021/10/22 03:50:01;;;;;;;3.40;2.95;;;;;;;15.74;49.27;98844.00;1661787;85;21913;-73
2021/10/22 03:52:27;;;;;;;5.87;3.33;;;;;;;15.71;49.35;98848.68;1684501;85;21643;-73
2021/10/22 03:54:54;;;;;;;5.90;3.22;;;;;;;15.67;49.43;98857.17;1680804;85;21634;-72
2021/10/22 03:57:20;;;;;;;9.35;3.12;;;;;;;15.65;49.50;98872.92;1652634;85;21584;-70
2021/10/22 03:59:47;;;;;;;12.23;3.50;;;;;;;15.62;49.56;98870.28;1648851;86;21019;-72
2021/10/22 04:02:14;;;;;;;6.83;2.47;;;;;;;15.61;49.56;98861.89;1682081;84;22050;-71
2021/10/22 04:04:40;;;;;;;3.40;3.10;;;;;;;15.59;49.04;98877.64;1687969;85;21536;-71
2021/10/22 04:07:07;;;;;;;7.60;2.83;;;;;;;15.56;48.89;98882.33;1671278;85;21051;-72
2021/10/22 04:09:35;;;;;;;3.47;2.10;;;;;;;15.54;48.43;98891.88;1644583;85;21058;-70
2021/10/22 04:12:01;;;;;;;9.23;2.50;;;;;;;15.52;48.05;98908.98;1657031;84;21595;-72
2021/10/22 04:14:28;;;;;;;7.03;2.62;;;;;;;15.50;48.21;98879.43;1674184;84;21054;-71
2021/10/22 04:16:56;;;;;;;5.28;2.47;;;;;;;15.49;48.08;98887.30;1694183;84;21068;-69
2021/10/22 04:19:27;;;;;;;17.42;3.00;;;;;;;15.45;47.80;98894.44;1695925;84;20984;-68
2021/10/22 04:21:52;;;;;;;4.17;2.20;;;;;;;15.41;47.85;98898.05;1671934;84;21066;-68
2021/10/22 04:24:18;;;;;;;10.15;2.50;;;;;;;15.38;47.52;98910.30;1671912;85;21582;-67
2021/10/22 04:26:46;;;;;;;4.58;2.47;;;;;;;15.34;47.64;98906.59;1631048;85;21200;-69
2021/10/22 04:29:12;;;;;;;6.00;2.75;;;;;;;15.31;47.60;98911.23;1672516;85;21558;-69
2021/10/22 04:31:40;;;;;;;3.47;2.70;;;;;;;15.28;47.66;98911.30;1646666;85;21566;-69
2021/10/22 04:34:08;;;;;;;4.80;2.08;;;;;;;15.25;47.43;98915.94;1660773;85;21563;-70
2021/10/22 04:36:36;;;;;;;5.87;2.22;;;;;;;15.22;47.53;98914.39;1659816;85;21575;-68
2021/10/22 04:41:49;;;;;;;4.92;2.50;;;;;;;15.15;47.66;98909.92;1631059;87;21059;-70
2021/10/22 04:44:15;;;;;;;6.45;3.00;;;;;;;15.10;47.62;98922.20;1661324;85;21043;-68
2021/10/22 04:46:42;;;;;;;8.90;3.52;;;;;;;15.07;47.68;98916.81;1659587;85;21099;-69
2021/10/22 04:49:08;;;;;;;10.05;3.50;;;;;;;15.05;47.61;98926.36;1659635;86;21555;-68
2021/10/22 04:51:35;;;;;;;9.05;2.85;;;;;;;15.03;47.70;98933.97;1629409;86;21148;-70
2021/10/22 04:54:01;;;;;;;10.05;2.85;;;;;;;15.00;47.77;98926.45;1607106;88;21015;-70
2021/10/22 04:56:28;;;;;;;4.42;3.00;;;;;;;14.97;47.91;98932.43;1607097;88;21083;-71
2021/10/22 04:58:54;;;;;;;10.48;3.10;;;;;;;14.94;48.12;98935.75;1631305;88;21115;-71
2021/10/22 05:01:22;;;;;;;11.57;3.80;;;;;;;14.89;48.20;98950.17;1633626;86;21000;-69
2021/10/22 05:03:48;;;;;;;7.42;3.45;;;;;;;14.85;48.48;98951.87;1634322;86;21211;-69
2021/10/22 05:06:14;;;;;;;5.70;3.42;;;;;;;14.83;48.63;98954.05;1659371;86;21013;-69
2021/10/22 05:08:41;;;;;;;13.95;3.40;;;;;;;14.79;48.97;98955.20;1659850;86;21020;-69
2021/10/22 05:11:07;;;;;;;3.67;2.60;;;;;;;14.77;49.21;98966.09;1646101;85;20919;-69
2021/10/22 05:13:33;;;;;;;9.80;3.12;;;;;;;14.73;49.52;98976.67;1679073;85;21101;-68
2021/10/22 05:16:00;;;;;;;13.90;3.67;;;;;;;14.73;49.77;98985.34;1678653;85;21115;-69
2021/10/22 05:18:28;;;;;;;7.55;4.05;;;;;;;14.72;50.04;98982.41;1644895;87;21023;-68
2021/10/22 05:20:54;;;;;;;15.72;4.45;;;;;;;14.70;50.35;98988.10;1656584;85;20971;-73
2021/10/22 05:23:20;;;;;;;7.40;3.17;;;;;;;14.70;50.48;98991.36;1643011;86;21588;-67
2021/10/22 05:25:47;;;;;;;5.50;3.17;;;;;;;14.67;50.58;98983.28;1659487;86;21000;-70
2021/10/22 05:28:13;;;;;;;8.23;3.52;;;;;;;14.67;50.61;98986.54;1659532;85;21099;-70
2021/10/22 05:30:39;;;;;;;6.03;2.98;;;;;;;14.66;50.67;99002.52;1641421;85;21042;-69
2021/10/22 05:33:06;;;;;;;12.23;3.62;;;;;;;14.63;50.63;99012.01;1679340;85;21814;-68
2021/10/22 05:35:33;;;;;;;4.05;3.25;;;;;;;14.63;50.68;99011.20;1678912;85;21013;-69
2021/10/22 05:38:00;;;;;;;15.20;3.58;;;;;;;14.64;50.56;99009.56;1622891;87;21083;-70
2021/10/22 05:40:26;;;;;;;12.58;3.42;;;;;;;14.64;50.55;99006.05;1668774;85;21088;-70
2021/10/22 05:42:53;;;;;;;3.85;2.98;;;;;;;14.66;50.66;99009.28;1618573;88;21023;-69
2021/10/22 05:45:19;;;;;;;9.08;3.08;;;;;;;14.67;50.68;99010.89;1602108;88;21556;-72
2021/10/22 05:47:46;;;;;;;5.83;2.90;;;;;;;14.68;50.77;99019.25;1591276;89;21071;-71
2021/10/22 05:50:12;;;;;;;6.78;3.05;;;;;;;14.67;50.85;99017.12;1588742;87;21066;-69
2021/10/22 05:52:38;;;;;;;7.42;3.77;;;;;;;14.67;51.01;99034.71;1634231;87;23351;-71
2021/10/22 05:55:05;;;;;;;6.45;3.10;;;;;;;14.69;51.16;99026.28;1602065;88;21565;-71
2021/10/22 05:57:33;;;;;;;8.90;3.25;;;;;;;14.68;51.24;99030.88;1602057;88;21020;-70
2021/10/22 05:59:59;;;;;;;7.95;3.10;;;;;;;14.71;51.38;99034.92;1618552;87;21059;-69
2021/10/22 06:02:26;;;;;;;14.47;3.05;;;;;;;14.73;51.45;99034.06;1602028;88;21144;-70
2021/10/22 06:04:52;;;;;;;11.53;3.17;;;;;;;14.76;51.30;99024.83;1618921;88;21139;-71
2021/10/22 06:07:18;;;;;;;4.95;3.27;;;;;;;14.80;51.23;99026.39;1618383;88;21043;-69
2021/10/22 06:09:45;;;;;;;4.53;3.05;;;;;;;14.82;50.99;99035.82;1602097;88;21063;-71
2021/10/22 06:12:14;;;;;;;7.22;3.00;;;;;;;14.83;50.84;99032.02;1628922;87;21035;-71
2021/10/22 06:14:41;;;;;;;7.80;2.83;;;;;;;14.86;50.69;99035.25;1618618;88;21080;-70
2021/10/22 06:17:09;;;;;;;13.10;3.00;;;;;;;14.84;50.33;99021.45;1628273;87;21372;-71
2021/10/22 06:19:40;;;;;;;5.97;2.83;;;;;;;14.86;49.59;99031.19;1639201;87;21011;-71
2021/10/22 06:24:32;;;;;;;6.85;2.70;;;;;;;14.84;49.26;99028.22;1614574;87;21112;-70
2021/10/22 06:26:58;;;;;;;6.35;2.72;;;;;;;14.83;49.11;99059.09;1614552;87;21118;-70
2021/10/22 06:29:24;;;;;;;3.70;2.22;;;;;;;14.83;48.83;99046.91;1614708;87;21116;-69
2021/10/22 06:31:51;;;;;;;6.95;2.60;;;;;;;14.81;48.16;99055.89;1620468;86;21066;-70
2021/10/22 06:34:19;;;;;;;4.67;2.22;;;;;;;14.81;47.84;99065.91;1618662;88;21027;-69
2021/10/22 06:36:46;;;;;;;4.58;2.05;;;;;;;14.81;47.70;99053.73;1599215;88;21085;-67
2021/10/22 06:39:12;;;;;;;4.45;1.75;;;;;;;14.80;47.03;99043.99;1692738;84;20976;-69
2021/10/22 06:41:39;;;;;;;2.95;1.32;;;;;;;14.78;46.07;99044.27;1676366;84;22005;-69
2021/10/22 06:44:05;;;;;;;4.90;1.72;;;;;;;14.75;45.00;99059.77;1682956;84;21022;-69
2021/10/22 06:46:32;;;;;;;4.12;1.52;;;;;;;14.76;45.41;99064.63;1655364;85;21031;-70
2021/10/22 06:48:59;;;;;;;8.05;1.98;;;;;;;14.75;45.52;99063.82;1670359;84;21528;-69
2021/10/22 06:51:25;;;;;;;4.08;1.60;;;;;;;14.74;45.74;99057.34;1694372;84;21517;-71
2021/10/22 06:53:52;;;;;;;5.95;1.90;;;;;;;14.75;45.83;99059.77;1673905;84;22006;-70
2021/10/22 06:56:20;;;;;;;4.60;2.05;;;;;;;14.78;46.00;99061.88;1633700;85;21547;-68
2021/10/22 06:58:48;;;;;;;4.55;2.15;;;;;;;14.80;46.11;99056.17;1687778;84;21325;-71
2021/10/22 07:01:14;;;;;;;7.85;1.98;;;;;;;14.83;46.24;99055.03;1666332;84;21169;-70
2021/10/22 07:03:43;;;;;;;5.08;1.80;;;;;;;14.88;46.30;99046.58;1687966;84;20980;-70
2021/10/22 07:08:55;;;;;;;11.12;2.60;;;;;;;14.95;46.60;99063.27;1694678;84;20948;-69
2021/10/22 07:11:23;;;;;;;11.35;2.67;;;;;;;14.98;46.74;99040.47;1687222;84;21031;-70
2021/10/22 07:13:53;;;;;;;6.35;2.80;;;;;;;15.02;47.05;99069.91;1681190;84;21071;-71
2021/10/22 07:16:19;;;;;;;7.37;2.55;;;;;;;15.06;47.21;99060.09;1677408;85;21563;-70
2021/10/22 07:18:46;;;;;;;6.50;2.60;;;;;;;15.09;47.34;99056.82;1677109;85;21324;-71
2021/10/22 07:21:15;;;;;;;8.25;2.85;;;;;;;15.14;47.30;99060.80;1676644;85;20947;-69
2021/10/22 07:23:43;;;;;;;7.62;3.15;;;;;;;15.19;47.31;99045.83;1661444;84;21024;-71
2021/10/22 07:26:09;;;;;;;8.33;2.80;;;;;;;15.24;47.13;99055.23;1674164;84;21051;-71
2021/10/22 07:28:36;;;;;;;9.83;2.75;;;;;;;15.28;46.24;99064.91;1674210;84;21111;-70
2021/10/22 07:31:02;;;;;;;4.90;2.77;;;;;;;15.33;46.49;99060.77;1694272;84;21303;-72
2021/10/22 07:33:29;;;;;;;4.10;3.00;;;;;;;15.37;46.55;99067.20;1671717;84;21006;-71
2021/10/22 07:35:56;;;;;;;9.88;3.67;;;;;;;15.42;46.36;99060.89;1694746;84;20987;-72
2021/10/22 07:38:23;;;;;;;12.90;2.72;;;;;;;15.45;46.25;99062.45;1660909;85;21042;-71
2021/10/22 07:40:50;;;;;;;10.60;3.05;;;;;;;15.49;46.02;99060.75;1663316;85;21055;-71
2021/10/22 07:43:18;;;;;;;16.77;2.70;;;;;;;15.53;45.61;99057.75;1658988;85;21582;-70
2021/10/22 07:45:44;;;;;;;8.75;3.00;;;;;;;15.58;45.80;99075.84;1659239;85;21023;-69
2021/10/22 07:48:12;;;;;;;6.97;3.20;;;;;;;15.60;45.38;99084.45;1630364;86;21124;-68
2021/10/22 07:50:39;;;;;;;7.15;2.95;;;;;;;15.64;45.20;99083.56;1630519;86;21083;-70
2021/10/22 07:53:06;;;;;;;6.47;2.70;;;;;;;15.65;45.22;99089.24;1659508;85;21020;-69
2021/10/22 07:55:35;;;;;;;8.58;3.35;;;;;;;15.66;45.25;99088.70;1659652;86;21509;-68
2021/10/22 07:58:02;;;;;;;6.53;2.75;;;;;;;15.66;45.17;99084.08;1660856;85;21043;-70
2021/10/22 08:00:30;;;;;;;9.73;2.75;;;;;;;15.64;44.98;99082.20;1634644;86;21084;-72
2021/10/22 08:02:56;;;;;;;11.35;5.17;;;;;;;15.66;45.01;99081.38;1670148;85;21524;-71
2021/10/22 08:05:23;;;;;;;26.50;3.92;;;;;;;15.67;44.64;99091.67;1647343;87;21060;-70
2021/10/22 08:07:49;;;;;;;4.75;3.30;;;;;;;15.67;44.23;99090.31;1634702;86;21579;-72
2021/10/22 08:10:15;;;;;;;7.35;2.92;;;;;;;15.66;44.17;99107.67;1630234;86;21060;-69
2021/10/22 08:12:42;;;;;;;6.15;3.35;;;;;;;15.64;44.40;99097.12;1659783;86;20936;-70
2021/10/22 08:15:08;;;;;;;5.95;3.05;;;;;;;15.66;43.73;99115.26;1671540;85;21863;-69
2021/10/22 08:17:35;;;;;;;11.25;3.08;;;;;;;15.65;43.20;99123.13;1625387;87;21065;-71
2021/10/22 08:20:09;;;;;;;4.45;2.87;;;;;;;15.65;42.47;99103.34;1657439;86;21525;-70
2021/10/22 08:22:32;;;;;;;15.28;5.08;;;;;;;15.65;41.82;99115.55;1632924;86;21525;-71
2021/10/22 08:25:08;;;;;;;17.87;2.70;;;;;;;15.67;41.59;99116.06;1659734;85;21207;-75
2021/10/22 08:27:38;;;;;;;22.48;2.62;;;;;;;15.68;40.81;99111.69;1660678;85;21535;-71
2021/10/22 08:30:09;;;;;;;22.48;2.50;;;;;;;15.67;40.67;99101.97;1630504;86;21015;-71
2021/10/22 08:32:36;;;;;;;4.60;2.17;;;;;;;15.65;40.98;99115.00;1659505;86;21327;-70
2021/10/22 08:35:06;;;;;;;8.98;4.17;;;;;;;15.65;41.03;99100.64;1634788;86;21020;-70
2021/10/22 08:37:35;;;;;;;6.78;2.08;;;;;;;15.65;41.25;99127.20;1660695;85;21091;-69
2021/10/22 08:40:04;;;;;;;9.90;2.60;;;;;;;15.65;40.57;99101.99;1654026;84;21060;-70
2021/10/22 08:42:30;;;;;;;7.15;2.70;;;;;;;15.65;40.91;99111.48;1693524;84;21231;-70
2021/10/22 08:44:58;;;;;;;7.03;2.12;;;;;;;15.67;40.88;99116.87;1626945;85;21128;-70
2021/10/22 08:47:27;;;;;;;6.60;2.35;;;;;;;15.70;40.92;99110.84;1683797;84;21030;-70
2021/10/22 08:49:57;;;;;;;3.58;1.70;;;;;;;15.76;40.96;99146.01;1644273;87;21042;-70
2021/10/22 08:52:24;;;;;;;14.55;2.47;;;;;;;15.80;40.23;99132.91;1644425;85;20972;-70
2021/10/22 08:54:53;;;;;;;6.72;2.45;;;;;;;15.79;40.38;99116.94;1687859;84;21000;-72
2021/10/22 08:57:19;;;;;;;9.95;2.70;;;;;;;15.77;40.59;99110.47;1673995;84;21544;-72
2021/10/22 08:59:46;;;;;;;14.55;2.33;;;;;;;15.80;40.40;99123.42;1694258;84;21551;-69
2021/10/22 09:02:21;;;;;;;5.97;2.10;;;;;;;15.84;40.35;99123.63;1673586;84;21607;-70
2021/10/22 09:04:56;;;;;;;7.45;2.75;;;;;;;15.87;40.22;99121.14;1626832;85;22283;-69
2021/10/22 09:07:22;;;;;;;24.70;3.45;;;;;;;15.90;39.75;99120.53;1648586;85;21039;-71
2021/10/22 09:10:27;;;;;;;18.15;2.35;;;;;;;15.94;39.87;99109.34;1631238;85;21181;-70
2021/10/22 09:12:57;;;;;;;8.90;2.20;;;;;;;16.01;39.98;99126.59;1600021;87;20977;-69
2021/10/22 09:15:35;;;;;;;8.20;2.40;;;;;;;16.04;39.40;99124.63;1667853;84;21063;-71
2021/10/22 09:18:07;;;;;;;8.63;2.85;;;;;;;16.04;39.68;99142.25;1679612;84;21539;-69
2021/10/22 09:20:47;;;;;;;6.40;1.95;;;;;;;16.04;39.66;99162.05;1672269;84;21540;-71
2021/10/22 09:23:13;;;;;;;4.67;2.20;;;;;;;16.06;39.88;99124.59;1652537;85;21289;-71
2021/10/22 09:25:40;;;;;;;6.53;2.40;;;;;;;16.08;40.01;99120.20;1626975;85;21034;-71
2021/10/22 09:28:07;;;;;;;10.98;4.70;;;;;;;16.12;40.08;99110.36;1677096;84;21012;-72
2021/10/22 09:30:45;;;;;;;17.42;9.38;;;;;;;16.15;40.18;99120.62;1637687;85;21117;-70
2021/10/22 09:33:16;;;;;;;18.07;10.03;;;;;;;16.15;40.22;99124.70;1671504;85;21068;-70
2021/10/22 09:35:46;;;;;;;9.03;6.65;;;;;;;16.13;40.29;99173.83;1670466;85;21561;-77
2021/10/22 09:38:20;;;;;;;9.40;4.75;;;;;;;16.11;40.34;99144.04;1672613;85;21022;-72
2021/10/22 09:41:05;;;;;;;11.95;8.98;;;;;;;16.08;40.43;99125.63;1677187;85;21555;-72
2021/10/22 09:43:39;;;;;;;21.93;13.08;;;;;;;16.08;40.54;99151.41;1694158;84;21004;-71
2021/10/22 09:46:20;;;;;;;16.60;8.50;;;;;;;16.09;40.72;99131.31;1676414;84;21027;-70
2021/10/22 09:49:00;;;;;;;11.10;7.55;;;;;;;16.12;40.65;99128.80;1627242;87;21252;-71
2021/10/22 09:51:33;;;;;;;8.43;6.05;;;;;;;16.17;40.58;99126.54;1630707;84;20924;-71
2021/10/22 09:54:09;;;;;;;6.22;3.90;;;;;;;16.20;40.61;99131.39;1671992;85;20987;-72
2021/10/22 09:56:38;;;;;;;8.30;4.28;;;;;;;16.23;40.35;99123.99;1657623;85;21516;-75
2021/10/22 09:59:07;;;;;;;5.75;2.25;;;;;;;16.29;40.08;99163.50;1663110;85;21031;-74
2021/10/22 10:01:40;;;;;;;9.20;2.12;;;;;;;16.31;40.11;99118.41;1653501;85;21800;-73
2021/10/22 10:04:08;;;;;;;8.53;1.87;;;;;;;16.30;39.83;99141.25;1684730;84;20998;-73
2021/10/22 10:06:35;;;;;;;11.25;3.02;;;;;;;16.28;40.00;99137.47;1681455;84;21013;-75
2021/10/22 10:09:04;;;;;;;7.85;1.52;;;;;;;16.26;40.05;99145.67;1677132;85;21504;-73
2021/10/22 10:11:31;;;;;;;4.80;1.95;;;;;;;16.23;40.04;99144.34;1690480;84;21095;-70
2021/10/22 10:14:00;;;;;;;5.87;2.20;;;;;;;16.23;40.22;99134.84;1677704;84;21311;-70
2021/10/22 10:16:28;;;;;;;4.83;2.30;;;;;;;16.27;40.31;99121.47;1677197;85;20929;-74
2021/10/22 10:18:59;;;;;;;11.73;2.52;;;;;;;16.32;40.05;99135.75;1685988;84;21087;-75
2021/10/22 10:21:27;;;;;;;9.00;2.12;;;;;;;16.37;40.11;99138.92;1695137;84;20995;-72
2021/10/22 10:23:54;;;;;;;8.45;2.62;;;;;;;16.41;39.73;99146.16;1676407;84;21118;-71
2021/10/22 10:26:23;;;;;;;15.03;2.25;;;;;;;16.44;39.64;99128.48;1693157;84;21243;-73
2021/10/22 10:28:50;;;;;;;6.45;2.08;;;;;;;16.48;39.46;99142.50;1677163;85;21528;-72
2021/10/22 10:31:39;;;;;;;8.58;1.98;;;;;;;16.47;38.91;99193.82;1645815;86;21543;-70
2021/10/22 10:34:39;;;;;;;2.72;1.67;;;;;;;16.44;38.86;99171.91;1650833;86;21049;-71
2021/10/22 10:37:40;;;;;;;6.85;1.90;;;;;;;16.47;38.98;99150.39;1658247;85;21039;-71
2021/10/22 10:40:15;;;;;;;4.15;2.35;;;;;;;16.44;38.99;99137.44;1660777;86;21458;-70
2021/10/22 10:42:47;;;;;;;3.60;1.85;;;;;;;16.49;38.49;99151.45;1638241;85;22142;-71
2021/10/22 10:45:29;;;;;;;3.70;2.20;;;;;;;16.54;38.51;99130.45;1662544;84;21028;-72
2021/10/22 10:48:13;;;;;;;3.40;1.65;;;;;;;16.61;38.43;99153.13;1694318;84;21760;-72
2021/10/22 10:50:56;;;;;;;6.75;1.77;;;;;;;16.72;38.01;99137.44;1663299;85;21119;-79
2021/10/22 10:53:39;;;;;;;11.38;1.90;;;;;;;16.76;37.52;99155.54;1649077;87;21575;-78
2021/10/22 10:56:21;;;;;;;12.47;1.83;;;;;;;16.73;37.70;99186.58;1628826;87;21042;-78
2021/10/22 10:58:47;;;;;;;5.50;1.67;;;;;;;16.74;37.61;99166.47;1682134;84;21068;-79
2021/10/22 11:01:24;;;;;;;9.18;3.33;;;;;;;16.77;37.74;99181.59;1684493;84;21043;-72
2021/10/22 11:03:50;;;;;;;12.25;1.55;;;;;;;16.78;37.70;99161.48;1655610;85;21023;-70
2021/10/22 11:06:52;;;;;;;6.53;1.35;;;;;;;16.81;37.63;99181.78;1681229;85;21673;-74
2021/10/22 11:09:43;;;;;;;2.72;1.37;;;;;;;16.83;37.72;99150.52;1687337;85;21001;-68
2021/10/22 11:12:07;;;;;;;4.80;1.60;;;;;;;16.90;37.80;99159.59;1668397;85;21062;-76
2021/10/22 11:14:42;;;;;;;2.05;1.15;;;;;;;16.98;37.83;99156.15;1677134;85;21075;-76
2021/10/22 11:17:09;;;;;;;8.90;2.75;;;;;;;17.07;37.74;99165.77;1678402;85;22172;-79
2021/10/22 11:19:39;;;;;;;10.78;3.25;;;;;;;17.13;37.45;99138.70;1677092;85;21512;-74
2021/10/22 11:22:18;;;;;;;22.45;2.70;;;;;;;17.16;37.31;99131.32;1643815;85;21054;-77
2021/10/22 11:24:43;;;;;;;5.22;2.62;;;;;;;17.26;36.95;99145.48;1628619;86;21035;-76
2021/10/22 11:27:17;;;;;;;7.90;2.10;;;;;;;17.25;36.61;99149.86;1655312;85;21507;-71
2021/10/22 11:29:47;;;;;;;19.60;2.37;;;;;;;17.18;36.41;99161.14;1676945;85;20959;-77
2021/10/22 11:32:16;;;;;;;10.48;1.92;;;;;;;17.14;36.38;99179.17;1654973;85;21792;-74
2021/10/22 11:34:56;;;;;;;12.95;3.10;;;;;;;17.09;36.30;99193.42;1677094;85;21042;-72
2021/10/22 11:37:27;;;;;;;7.65;1.90;;;;;;;17.06;36.36;99149.20;1634970;85;20975;-75
2021/10/22 11:39:55;;;;;;;4.67;2.10;;;;;;;17.03;36.21;99174.25;1671587;85;21062;-71
2021/10/22 11:42:29;;;;;;;13.03;2.30;;;;;;;16.98;36.59;99167.02;1671877;85;21070;-71
2021/10/22 11:45:12;;;;;;;13.85;1.87;;;;;;;16.99;36.60;99174.06;1644498;85;21089;-72
2021/10/22 11:47:47;;;;;;;8.48;1.92;;;;;;;17.05;36.55;99177.48;1648544;85;20964;-71